createdAt,value
2023-04-23T00:00:13.509Z,7.60
2023-04-23T00:02:44.693Z,7.60
2023-04-23T00:05:14.844Z,7.60
2023-04-23T00:07:43.714Z,7.50
2023-04-23T00:10:13.212Z,7.50
2023-04-23T00:12:43.694Z,7.50
2023-04-23T00:15:15.203Z,7.40
2023-04-23T00:17:43.425Z,7.40
2023-04-23T00:20:12.932Z,7.40
2023-04-23T00:22:41.336Z,7.30
2023-04-23T00:25:10.573Z,7.30
2023-04-23T00:27:39.072Z,7.30
2023-04-23T00:30:09.070Z,7.30
2023-04-23T00:32:38.745Z,7.30
2023-04-23T00:35:07.951Z,7.30
2023-04-23T00:37:36.314Z,7.30
2023-04-23T00:40:05.469Z,7.30
2023-04-23T00:42:33.730Z,7.30
2023-04-23T00:45:02.817Z,7.30
2023-04-23T00:47:31.290Z,7.30
2023-04-23T00:50:01.647Z,7.30
2023-04-23T00:52:30.545Z,7.30
2023-04-23T00:54:59.013Z,7.30
2023-04-23T00:57:28.128Z,7.30
2023-04-23T00:59:58.403Z,7.30
2023-04-23T01:02:28.638Z,7.20
2023-04-23T01:04:57.462Z,7.30
2023-04-23T01:07:28.722Z,7.30
2023-04-23T01:09:57.280Z,7.20
2023-04-23T01:12:25.719Z,7.20
2023-04-23T01:14:54.128Z,7.20
2023-04-23T01:17:23.033Z,7.20
2023-04-23T01:19:51.509Z,7.20
2023-04-23T01:22:21.349Z,7.10
2023-04-23T01:24:51.948Z,7.10
2023-04-23T01:27:22.380Z,7.10
2023-04-23T01:29:51.078Z,7.10
2023-04-23T01:32:20.536Z,7.10
2023-04-23T01:34:49.303Z,7.10
2023-04-23T01:37:18.036Z,7.10
2023-04-23T01:39:47.701Z,7.00
2023-04-23T01:42:16.038Z,7.00
2023-04-23T01:44:44.266Z,7.10
2023-04-23T01:47:12.604Z,7.00
2023-04-23T01:49:41.040Z,7.00
2023-04-23T01:52:09.647Z,7.00
2023-04-23T01:54:37.893Z,7.00
2023-04-23T01:57:07.724Z,7.00
2023-04-23T01:59:36.122Z,7.00
2023-04-23T02:02:04.488Z,7.00
2023-04-23T02:04:33.424Z,7.00
2023-04-23T02:07:01.859Z,7.00
2023-04-23T02:09:30.479Z,7.00
2023-04-23T02:12:02.823Z,7.00
2023-04-23T02:14:32.527Z,6.90
2023-04-23T02:17:00.780Z,7.00
2023-04-23T02:19:31.131Z,6.90
2023-04-23T02:21:59.399Z,7.00
2023-04-23T02:24:27.685Z,7.00
2023-04-23T02:26:55.981Z,7.00
2023-04-23T02:29:24.154Z,7.00
2023-04-23T02:31:53.924Z,7.00
2023-04-23T02:34:22.340Z,7.00
2023-04-23T02:36:51.085Z,7.00
2023-04-23T02:39:19.323Z,7.00
2023-04-23T02:41:47.610Z,7.00
2023-04-23T02:44:15.911Z,7.00
2023-04-23T02:46:44.167Z,7.00
2023-04-23T02:49:14.752Z,6.90
2023-04-23T02:51:43.360Z,7.00
2023-04-23T02:54:11.975Z,7.00
2023-04-23T02:56:40.457Z,7.00
2023-04-23T02:59:09.490Z,7.00
2023-04-23T03:01:37.932Z,7.00
2023-04-23T03:04:09.306Z,6.90
2023-04-23T03:06:39.296Z,7.00
2023-04-23T03:09:07.572Z,6.90
2023-04-23T03:11:35.926Z,6.90
2023-04-23T03:14:04.326Z,6.90
2023-04-23T03:16:32.717Z,6.90
2023-04-23T03:19:01.175Z,6.90
2023-04-23T03:21:29.746Z,6.90
2023-04-23T03:23:59.458Z,6.90
2023-04-23T03:26:27.728Z,6.90
2023-04-23T03:28:55.964Z,6.90
2023-04-23T03:31:24.424Z,7.00
2023-04-23T03:33:54.549Z,7.00
2023-04-23T03:36:30.266Z,7.00
2023-04-23T03:39:00.151Z,7.00
2023-04-23T03:41:33.701Z,7.00
2023-04-23T03:44:03.328Z,7.00
2023-04-23T03:46:46.242Z,7.00
2023-04-23T03:49:17.236Z,7.00
2023-04-23T03:51:46.166Z,6.90
2023-04-23T03:54:15.815Z,7.00
2023-04-23T03:56:57.704Z,7.00
2023-04-23T03:59:29.939Z,7.00
2023-04-23T04:02:01.282Z,7.00
2023-04-23T04:04:29.799Z,7.00
2023-04-23T04:06:58.583Z,7.00
2023-04-23T04:09:30.667Z,6.90
2023-04-23T04:12:02.868Z,6.90
2023-04-23T04:14:32.218Z,6.90
2023-04-23T04:17:00.533Z,7.00
2023-04-23T04:19:28.807Z,7.00
2023-04-23T04:21:57.139Z,7.00
2023-04-23T04:24:26.337Z,7.10
2023-04-23T04:26:56.126Z,7.10
2023-04-23T04:29:24.498Z,7.10
2023-04-23T04:31:53.005Z,7.20
2023-04-23T04:34:21.422Z,7.20
2023-04-23T04:36:51.539Z,7.30
2023-04-23T04:39:20.011Z,7.40
2023-04-23T04:41:48.640Z,7.50
2023-04-23T04:44:18.856Z,7.60
2023-04-23T04:46:48.113Z,7.70
2023-04-23T04:49:19.537Z,7.80
2023-04-23T04:51:47.977Z,7.90
2023-04-23T04:54:16.339Z,8.00
2023-04-23T04:56:44.568Z,8.10
2023-04-23T04:59:12.821Z,8.20
2023-04-23T05:01:42.966Z,8.30
2023-04-23T05:04:11.342Z,8.40
2023-04-23T05:06:39.798Z,8.50
2023-04-23T05:09:08.248Z,8.60
2023-04-23T05:11:36.903Z,8.70
2023-04-23T05:14:05.397Z,8.80
2023-04-23T05:16:34.607Z,9.00
2023-04-23T05:19:04.323Z,9.10
2023-04-23T05:21:32.681Z,9.20
2023-04-23T05:24:00.951Z,9.30
2023-04-23T05:26:29.610Z,9.40
2023-04-23T05:28:58.013Z,9.50
2023-04-23T05:31:28.141Z,9.60
2023-04-23T05:33:57.651Z,9.70
2023-04-23T05:36:27.482Z,9.90
2023-04-23T05:38:55.892Z,10.00
2023-04-23T05:41:24.286Z,10.20
2023-04-23T05:43:52.540Z,10.30
2023-04-23T05:46:21.004Z,10.60
2023-04-23T05:48:49.246Z,10.70
2023-04-23T05:51:17.476Z,10.90
2023-04-23T05:53:47.150Z,11.00
2023-04-23T05:56:15.413Z,11.20
2023-04-23T05:58:43.778Z,11.30
2023-04-23T06:01:12.030Z,11.50
2023-04-23T06:03:45.528Z,11.80
2023-04-23T06:06:14.481Z,12.10
2023-04-23T06:08:42.756Z,12.40
2023-04-23T06:11:12.410Z,12.70
2023-04-23T06:13:43.934Z,13.20
2023-04-23T06:16:12.449Z,13.40
2023-04-23T06:18:40.841Z,13.60
2023-04-23T06:21:09.713Z,13.70
2023-04-23T06:23:37.954Z,13.90
2023-04-23T06:26:06.524Z,14.40
2023-04-23T06:28:36.260Z,14.70
2023-04-23T06:31:27.765Z,14.90
2023-04-23T06:33:56.086Z,14.90
2023-04-23T06:36:24.330Z,14.70
2023-04-23T06:38:52.531Z,14.50
2023-04-23T06:41:20.921Z,14.50
2023-04-23T06:43:59.537Z,14.40
2023-04-23T06:46:37.640Z,14.30
2023-04-23T06:49:09.290Z,14.30
2023-04-23T06:51:37.602Z,14.30
2023-04-23T06:54:06.059Z,14.30
2023-04-23T06:56:34.320Z,14.40
2023-04-23T06:59:08.093Z,14.40
2023-04-23T07:01:44.153Z,14.50
2023-04-23T07:04:12.400Z,14.60
2023-04-23T07:06:40.716Z,14.70
2023-04-23T07:09:09.083Z,15.00
2023-04-23T07:11:37.466Z,16.10
2023-04-23T07:14:07.486Z,17.60
2023-04-23T07:16:36.260Z,19.10
2023-04-23T07:19:04.911Z,19.60
2023-04-23T07:21:33.316Z,19.50
2023-04-23T07:24:06.898Z,19.10
2023-04-23T07:26:35.592Z,19.00
2023-04-23T07:29:04.170Z,18.80
2023-04-23T07:31:33.900Z,18.50
2023-04-23T07:34:02.383Z,18.10
2023-04-23T07:36:31.384Z,17.90
2023-04-23T07:38:59.768Z,17.60
2023-04-23T07:41:28.352Z,17.40
2023-04-23T07:43:56.741Z,17.20
2023-04-23T07:46:25.179Z,17.10
2023-04-23T07:48:55.801Z,17.00
2023-04-23T07:51:26.765Z,17.00
2023-04-23T07:53:56.470Z,17.00
2023-04-23T07:56:24.901Z,17.00
2023-04-23T07:58:56.638Z,17.00
2023-04-23T08:01:25.126Z,17.10
2023-04-23T08:03:59.105Z,17.10
2023-04-23T08:06:30.021Z,17.10
2023-04-23T08:08:58.755Z,17.10
2023-04-23T08:11:29.565Z,17.20
2023-04-23T08:13:57.878Z,17.40
2023-04-23T08:16:30.732Z,17.40
2023-04-23T08:19:05.501Z,17.50
2023-04-23T08:21:34.511Z,17.50
2023-04-23T08:24:04.456Z,17.60
2023-04-23T08:26:32.937Z,17.70
2023-04-23T08:29:01.845Z,17.70
2023-04-23T08:31:30.349Z,17.70
2023-04-23T08:34:00.516Z,17.80
2023-04-23T08:36:29.517Z,17.80
2023-04-23T08:38:58.070Z,18.00
2023-04-23T08:41:31.761Z,18.10
2023-04-23T08:44:07.346Z,18.40
2023-04-23T08:46:38.051Z,18.60
2023-04-23T08:49:09.613Z,18.70
2023-04-23T08:51:43.879Z,18.80
2023-04-23T08:54:17.732Z,18.70
2023-04-23T08:56:47.292Z,18.90
2023-04-23T08:59:17.991Z,18.90
2023-04-23T09:01:46.427Z,19.00
2023-04-23T09:04:24.836Z,19.10
2023-04-23T09:06:53.866Z,19.40
2023-04-23T09:09:24.863Z,19.60
2023-04-23T09:11:54.871Z,20.30
2023-04-23T09:14:25.865Z,21.70
2023-04-23T09:16:56.373Z,23.80
2023-04-23T09:19:28.407Z,26.20
2023-04-23T09:21:56.705Z,28.30
2023-04-23T09:24:30.958Z,29.50
2023-04-23T09:26:59.999Z,31.00
2023-04-23T09:29:28.569Z,32.00
2023-04-23T09:32:04.413Z,32.70
2023-04-23T09:34:37.714Z,34.00
2023-04-23T09:37:08.014Z,35.50
2023-04-23T09:39:36.780Z,36.30
2023-04-23T09:42:09.889Z,36.70
2023-04-23T09:44:40.562Z,37.80
2023-04-23T09:47:12.343Z,38.70
2023-04-23T09:49:49.196Z,38.50
